createdAt,value
2018-06-20T00:01:29.032Z,72.40
2018-06-20T00:03:57.485Z,72.80
2018-06-20T00:06:25.972Z,72.70
2018-06-20T00:11:24.518Z,73.20
2018-06-20T00:13:54.097Z,73.50
2018-06-20T00:16:22.577Z,73.80
2018-06-20T00:18:51.017Z,74.10
2018-06-20T00:21:19.440Z,74.40
2018-06-20T00:23:47.946Z,74.50
2018-06-20T00:26:16.430Z,74.50
2018-06-20T00:28:44.859Z,74.30
2018-06-20T00:31:13.330Z,74.50
2018-06-20T00:33:41.821Z,74.80
2018-06-20T00:36:10.300Z,74.90
2018-06-20T00:38:38.657Z,75.00
2018-06-20T00:43:35.244Z,74.90
2018-06-20T00:46:03.826Z,74.80
2018-06-20T00:51:00.361Z,74.80
2018-06-20T00:53:28.744Z,75.10
2018-06-20T00:56:08.351Z,75.00
2018-06-20T00:58:36.695Z,75.30
2018-06-20T01:01:05.168Z,75.50
2018-06-20T01:03:33.519Z,75.40
2018-06-20T01:06:01.886Z,75.70
2018-06-20T01:08:30.324Z,75.80
2018-06-20T01:10:58.718Z,76.40
2018-06-20T01:13:27.185Z,77.00
2018-06-20T01:15:55.564Z,77.30
2018-06-20T01:18:23.992Z,77.80
2018-06-20T01:20:52.457Z,78.00
2018-06-20T01:23:20.986Z,78.10
2018-06-20T01:25:50.054Z,78.10
2018-06-20T01:28:20.096Z,78.10
2018-06-20T01:30:49.237Z,78.00
2018-06-20T01:33:17.651Z,78.10
2018-06-20T01:35:46.065Z,78.10
2018-06-20T01:38:14.732Z,78.10
2018-06-20T01:40:43.104Z,78.10
2018-06-20T01:43:11.486Z,78.20
2018-06-20T01:45:39.921Z,78.00
2018-06-20T01:48:08.999Z,77.80
2018-06-20T01:50:37.417Z,77.80
2018-06-20T01:53:05.772Z,77.80
2018-06-20T01:55:34.272Z,77.60
2018-06-20T01:58:02.655Z,77.40
2018-06-20T02:02:59.035Z,78.10
2018-06-20T02:05:27.365Z,78.10
2018-06-20T02:07:55.780Z,78.20
2018-06-20T02:10:24.403Z,78.20
2018-06-20T02:12:52.848Z,78.50
2018-06-20T02:15:21.255Z,78.80
2018-06-20T02:17:50.626Z,79.00
2018-06-20T02:20:19.016Z,78.90
2018-06-20T02:22:47.409Z,78.80
2018-06-20T02:25:16.056Z,78.80
2018-06-20T02:27:44.450Z,79.00
2018-06-20T02:30:12.858Z,78.80
2018-06-20T02:32:41.245Z,79.50
2018-06-20T02:35:09.601Z,78.90
2018-06-20T02:37:37.949Z,78.80
2018-06-20T02:40:06.441Z,78.80
2018-06-20T02:42:34.852Z,78.60
2018-06-20T02:45:03.243Z,78.70
2018-06-20T02:47:36.833Z,78.70
2018-06-20T02:50:05.203Z,78.80
2018-06-20T02:52:33.562Z,78.90
2018-06-20T02:55:01.987Z,79.00
2018-06-20T02:57:30.348Z,79.00
2018-06-20T02:59:58.687Z,79.20
2018-06-20T03:02:27.104Z,79.30
2018-06-20T03:04:55.505Z,79.60
2018-06-20T03:09:51.968Z,80.30
2018-06-20T03:12:20.362Z,80.20
2018-06-20T03:14:48.737Z,80.50
2018-06-20T03:17:17.093Z,80.00
2018-06-20T03:19:45.524Z,80.10
2018-06-20T03:22:13.900Z,80.60
2018-06-20T03:24:42.384Z,80.70
2018-06-20T03:27:20.634Z,81.20
2018-06-20T03:29:48.969Z,81.50
2018-06-20T03:32:17.284Z,81.50
2018-06-20T03:34:45.961Z,81.50
2018-06-20T03:37:14.305Z,81.70
2018-06-20T03:39:42.636Z,81.60
2018-06-20T03:42:11.020Z,81.40
2018-06-20T03:44:39.382Z,81.60
2018-06-20T03:47:07.758Z,81.80
2018-06-20T03:49:36.140Z,82.30
2018-06-20T03:52:04.514Z,82.50
2018-06-20T03:54:32.940Z,82.70
2018-06-20T03:57:01.332Z,83.10
2018-06-20T03:59:29.704Z,83.00
2018-06-20T04:01:58.097Z,83.60
2018-06-20T04:04:26.593Z,83.30
2018-06-20T04:06:54.968Z,83.30
2018-06-20T04:09:23.366Z,83.80
2018-06-20T04:11:51.878Z,83.90
2018-06-20T04:14:20.321Z,84.00
2018-06-20T04:16:48.753Z,84.00
2018-06-20T04:19:17.193Z,84.40
2018-06-20T04:21:45.688Z,84.20
2018-06-20T04:24:14.144Z,84.70
2018-06-20T04:26:42.546Z,85.10
2018-06-20T04:29:11.028Z,85.30
2018-06-20T04:31:39.587Z,85.20
2018-06-20T04:34:08.000Z,85.00
2018-06-20T04:36:36.468Z,85.20
2018-06-20T04:39:07.569Z,85.90
2018-06-20T04:41:36.212Z,86.20
2018-06-20T04:44:04.636Z,86.40
2018-06-20T04:46:33.086Z,86.20
2018-06-20T04:49:01.527Z,86.20
2018-06-20T04:51:30.106Z,86.50
2018-06-20T04:53:58.512Z,86.60
2018-06-20T04:56:26.999Z,86.80
2018-06-20T04:58:55.544Z,86.60
2018-06-20T05:01:24.069Z,86.80
2018-06-20T05:03:52.494Z,87.30
2018-06-20T05:06:20.957Z,87.30
2018-06-20T05:11:17.532Z,86.30
2018-06-20T05:13:46.328Z,87.10
2018-06-20T05:16:14.853Z,86.90
2018-06-20T05:18:43.224Z,87.30
2018-06-20T05:23:39.720Z,87.60
2018-06-20T05:26:11.432Z,87.80
2018-06-20T05:28:39.865Z,87.90
2018-06-20T05:31:08.333Z,88.00
2018-06-20T05:33:36.798Z,87.80
2018-06-20T05:36:05.189Z,88.10
2018-06-20T05:38:33.664Z,87.80
2018-06-20T05:41:02.083Z,87.80
2018-06-20T05:43:30.598Z,88.60
2018-06-20T05:45:59.175Z,88.80
2018-06-20T05:48:27.653Z,88.50
2018-06-20T05:50:56.123Z,88.30
2018-06-20T05:53:24.541Z,87.90
2018-06-20T05:55:52.974Z,88.30
2018-06-20T05:58:21.392Z,88.50
2018-06-20T06:00:49.840Z,88.20
2018-06-20T06:03:18.236Z,88.20
2018-06-20T06:05:57.880Z,88.20
2018-06-20T06:08:26.434Z,88.80
2018-06-20T06:10:54.953Z,88.40
2018-06-20T06:13:23.476Z,88.40
2018-06-20T06:15:51.892Z,87.50
2018-06-20T06:18:20.310Z,87.90
2018-06-20T06:20:48.697Z,87.60
2018-06-20T06:25:45.290Z,87.50
2018-06-20T06:28:13.696Z,88.30
2018-06-20T06:30:42.178Z,87.40
2018-06-20T06:33:10.612Z,87.80
2018-06-20T06:35:39.011Z,86.60
2018-06-20T06:38:07.485Z,86.40
2018-06-20T06:40:36.008Z,86.60
2018-06-20T06:43:04.477Z,86.70
2018-06-20T06:45:32.870Z,86.10
2018-06-20T06:48:01.337Z,85.80
2018-06-20T06:50:29.798Z,85.70
2018-06-20T06:52:58.181Z,86.10
2018-06-20T06:55:26.640Z,85.50
2018-06-20T07:00:23.156Z,85.60
2018-06-20T07:02:51.617Z,85.60
2018-06-20T07:05:20.076Z,85.30
2018-06-20T07:07:48.578Z,85.50
2018-06-20T07:10:17.022Z,85.10
2018-06-20T07:12:45.523Z,82.80
2018-06-20T07:15:13.984Z,82.30
2018-06-20T07:17:42.429Z,82.70
2018-06-20T07:20:10.868Z,82.00
2018-06-20T07:22:39.251Z,82.00
2018-06-20T07:25:07.780Z,82.70
2018-06-20T07:27:36.192Z,81.70
2018-06-20T07:30:04.671Z,81.00
2018-06-20T07:32:33.093Z,80.30
2018-06-20T07:35:02.616Z,81.10
2018-06-20T07:37:31.188Z,80.50
2018-06-20T07:39:59.536Z,79.50
2018-06-20T07:42:27.932Z,78.40
2018-06-20T07:44:56.454Z,78.70
2018-06-20T07:47:24.848Z,78.30
2018-06-20T07:49:53.405Z,77.70
2018-06-20T07:52:22.891Z,77.60
2018-06-20T07:54:51.342Z,77.50
2018-06-20T07:57:19.889Z,77.00
2018-06-20T07:59:53.597Z,77.90
2018-06-20T08:05:07.486Z,75.50
2018-06-20T08:07:41.088Z,75.50
2018-06-20T08:10:14.899Z,75.40
2018-06-20T08:12:48.593Z,74.60
2018-06-20T08:15:22.171Z,74.70
2018-06-20T08:17:56.052Z,75.10
2018-06-20T08:20:25.460Z,74.90
2018-06-20T08:22:53.991Z,75.20
2018-06-20T08:25:22.349Z,74.00
2018-06-20T08:27:50.897Z,74.70
2018-06-20T08:30:19.492Z,74.80
2018-06-20T08:32:48.076Z,74.10
2018-06-20T08:35:16.533Z,74.00
2018-06-20T08:37:44.985Z,73.70
2018-06-20T08:40:13.741Z,73.50
2018-06-20T08:42:42.167Z,73.70
2018-06-20T08:45:10.727Z,74.50
2018-06-20T08:47:39.084Z,73.90
2018-06-20T08:50:07.426Z,73.80
2018-06-20T08:52:35.813Z,74.10
2018-06-20T08:57:32.301Z,73.10
2018-06-20T09:00:00.839Z,72.90
2018-06-20T09:02:29.550Z,73.20
2018-06-20T09:05:03.489Z,73.10
2018-06-20T09:07:37.228Z,72.90
2018-06-20T09:10:11.040Z,71.70
2018-06-20T09:12:44.949Z,70.80
2018-06-20T09:15:18.837Z,70.70
2018-06-20T09:17:52.758Z,70.90
2018-06-20T09:20:21.078Z,70.20
2018-06-20T09:22:49.540Z,69.40
2018-06-20T09:25:17.928Z,70.30
2018-06-20T09:27:46.316Z,70.60
2018-06-20T09:30:14.741Z,70.30
2018-06-20T09:32:43.152Z,69.80
2018-06-20T09:35:11.680Z,69.30
2018-06-20T09:37:40.105Z,68.90
2018-06-20T09:40:08.505Z,69.00
2018-06-20T09:42:37.017Z,68.90
2018-06-20T09:45:05.449Z,69.90
2018-06-20T09:47:33.861Z,69.70
2018-06-20T09:50:07.636Z,69.00
2018-06-20T09:55:04.124Z,68.20
2018-06-20T09:57:32.488Z,68.70
2018-06-20T10:00:06.202Z,67.70
2018-06-20T10:02:39.997Z,68.20
2018-06-20T10:05:13.626Z,67.60
2018-06-20T10:07:47.413Z,66.10
2018-06-20T10:10:21.260Z,66.30
2018-06-20T10:15:23.246Z,65.20
2018-06-20T10:17:51.698Z,66.70
2018-06-20T10:20:25.386Z,67.00
2018-06-20T10:22:53.757Z,65.70
2018-06-20T10:25:22.180Z,65.10
2018-06-20T10:27:52.325Z,64.80
2018-06-20T10:30:20.752Z,66.30
2018-06-20T10:32:49.297Z,66.20
2018-06-20T10:35:17.661Z,67.00
2018-06-20T10:37:46.114Z,66.80
2018-06-20T10:40:14.498Z,65.90
2018-06-20T10:42:42.889Z,66.00
2018-06-20T10:45:16.457Z,64.70
2018-06-20T10:47:46.361Z,65.40
2018-06-20T10:50:14.889Z,65.40
2018-06-20T10:52:43.293Z,66.10
2018-06-20T10:55:14.333Z,64.30
2018-06-20T10:57:48.184Z,65.00
2018-06-20T11:00:21.987Z,64.00
2018-06-20T11:02:55.864Z,63.70
2018-06-20T11:05:29.559Z,61.80
2018-06-20T11:08:03.563Z,61.30
2018-06-20T11:10:37.528Z,61.40
2018-06-20T11:13:07.601Z,61.80
2018-06-20T11:15:36.346Z,61.80
2018-06-20T11:18:04.891Z,60.60
2018-06-20T11:21:04.976Z,59.90
2018-06-20T11:23:33.335Z,58.80
2018-06-20T11:26:01.728Z,58.60
2018-06-20T11:28:30.100Z,58.50
2018-06-20T11:31:01.415Z,57.40
2018-06-20T11:33:29.835Z,57.00
2018-06-20T11:35:58.283Z,56.80
2018-06-20T11:38:26.835Z,57.50
2018-06-20T11:40:56.204Z,56.90
2018-06-20T11:43:24.636Z,57.50
2018-06-20T11:45:58.372Z,56.30
2018-06-20T11:48:26.842Z,56.30
2018-06-20T11:50:55.289Z,56.20
2018-06-20T11:53:24.059Z,56.20
2018-06-20T11:55:52.602Z,56.60
2018-06-20T11:58:26.310Z,56.30
2018-06-20T12:01:00.172Z,55.80
2018-06-20T12:03:34.044Z,55.90
2018-06-20T12:06:07.886Z,56.70
2018-06-20T12:08:41.556Z,58.00
2018-06-20T12:11:15.358Z,56.60
2018-06-20T12:17:23.162Z,57.20
2018-06-20T12:19:57.033Z,57.00
2018-06-20T12:22:30.737Z,57.10
2018-06-20T12:25:04.475Z,56.40
2018-06-20T12:27:38.412Z,56.10
2018-06-20T12:30:12.176Z,56.10
2018-06-20T12:32:46.047Z,56.10
2018-06-20T12:35:20.028Z,56.40
2018-06-20T12:37:53.708Z,56.20
2018-06-20T12:40:27.173Z,55.40
2018-06-20T12:43:00.856Z,56.10
2018-06-20T12:45:29.800Z,56.90
2018-06-20T12:47:59.432Z,54.60
2018-06-20T12:50:28.736Z,54.50
2018-06-20T12:52:57.684Z,55.90
2018-06-20T12:55:26.593Z,55.30
2018-06-20T12:57:55.984Z,56.30
2018-06-20T13:00:24.422Z,55.20
2018-06-20T13:02:52.954Z,55.10
2018-06-20T13:05:21.775Z,55.10
2018-06-20T13:07:50.494Z,55.00
2018-06-20T13:10:19.173Z,56.50
2018-06-20T13:12:47.597Z,56.30
2018-06-20T13:15:16.278Z,55.70
2018-06-20T13:17:44.978Z,56.30
2018-06-20T13:20:16.174Z,55.90
2018-06-20T13:22:44.697Z,55.70
2018-06-20T13:25:13.279Z,55.40
2018-06-20T13:27:46.623Z,55.40
2018-06-20T13:30:15.563Z,55.10
2018-06-20T13:32:51.830Z,55.20
2018-06-20T13:35:25.622Z,53.00
2018-06-20T13:38:00.438Z,52.80
2018-06-20T13:40:34.233Z,52.50
2018-06-20T13:43:08.237Z,52.70
2018-06-20T13:45:44.321Z,54.00
2018-06-20T13:48:18.209Z,52.80
2018-06-20T13:50:46.645Z,53.20
2018-06-20T13:53:15.215Z,52.40
2018-06-20T13:55:43.914Z,51.30
2018-06-20T13:58:13.753Z,50.80
2018-06-20T14:00:43.286Z,51.30
2018-06-20T14:05:40.016Z,52.20
2018-06-20T14:08:12.996Z,50.70
2018-06-20T14:10:43.521Z,50.70
2018-06-20T14:13:14.336Z,50.20
2018-06-20T14:15:42.764Z,50.30
2018-06-20T14:18:11.388Z,50.10
2018-06-20T14:20:45.290Z,50.40
2018-06-20T14:23:13.858Z,49.80
2018-06-20T14:25:42.219Z,50.40
2018-06-20T14:28:10.747Z,51.10
2018-06-20T14:30:44.643Z,50.30
2018-06-20T14:33:18.848Z,51.40
2018-06-20T14:35:52.745Z,51.60
2018-06-20T14:38:26.933Z,51.80
2018-06-20T14:41:00.881Z,51.90
2018-06-20T14:43:34.613Z,50.80
2018-06-20T14:46:08.486Z,50.50
2018-06-20T14:48:37.084Z,51.20
2018-06-20T14:51:07.530Z,50.20
2018-06-20T14:53:35.930Z,49.60
2018-06-20T14:56:06.940Z,49.90
2018-06-20T14:58:35.437Z,50.20
2018-06-20T15:01:05.817Z,50.50
2018-06-20T15:03:34.465Z,49.30
2018-06-20T15:06:03.442Z,49.20
2018-06-20T15:11:02.936Z,50.30
2018-06-20T15:13:34.017Z,50.30
2018-06-20T15:16:09.239Z,50.00
2018-06-20T15:18:40.640Z,51.20
2018-06-20T15:21:09.199Z,49.20
2018-06-20T15:23:37.675Z,49.80
2018-06-20T15:26:11.625Z,49.90
2018-06-20T15:28:45.492Z,48.90
2018-06-20T15:31:19.437Z,50.00
2018-06-20T15:33:55.341Z,50.20
2018-06-20T15:36:29.898Z,50.20
2018-06-20T15:39:00.230Z,50.80
2018-06-20T15:41:29.584Z,51.90
2018-06-20T15:43:58.565Z,49.90
2018-06-20T15:49:44.532Z,49.90
2018-06-20T15:52:17.894Z,49.30
2018-06-20T15:55:00.878Z,48.20
2018-06-20T15:57:32.020Z,48.80
2018-06-20T16:00:08.870Z,48.80
2018-06-20T16:02:42.779Z,49.20
2018-06-20T16:05:14.911Z,49.20
2018-06-20T16:07:45.149Z,49.10
2018-06-20T16:10:23.790Z,48.70
2018-06-20T16:12:56.126Z,49.10
2018-06-20T16:15:25.621Z,49.60
2018-06-20T16:17:54.672Z,50.30
2018-06-20T16:20:29.299Z,50.10
2018-06-20T16:23:06.263Z,49.30
2018-06-20T16:25:42.020Z,49.40
2018-06-20T16:28:16.577Z,49.60
2018-06-20T16:30:52.708Z,49.60
2018-06-20T16:33:27.772Z,49.90
2018-06-20T16:35:58.603Z,50.60
2018-06-20T16:38:29.885Z,49.80
2018-06-20T16:41:01.620Z,50.30
2018-06-20T16:46:09.254Z,50.10
2018-06-20T16:48:46.717Z,50.20
2018-06-20T16:51:16.890Z,49.60
2018-06-20T16:53:45.917Z,50.20
2018-06-20T16:56:16.801Z,50.90
2018-06-20T16:58:46.943Z,51.30
2018-06-20T17:03:58.641Z,51.60
2018-06-20T17:06:29.250Z,51.50
2018-06-20T17:09:15.304Z,51.20
2018-06-20T17:14:25.955Z,51.90
2018-06-20T17:17:00.019Z,51.70
2018-06-20T17:19:34.997Z,51.10
2018-06-20T17:22:16.281Z,51.50
2018-06-20T17:24:49.998Z,51.80
2018-06-20T17:27:18.638Z,51.90
2018-06-20T17:29:47.065Z,52.10
2018-06-20T17:32:15.628Z,52.20
2018-06-20T17:34:44.176Z,52.50
2018-06-20T17:37:12.959Z,52.50
2018-06-20T17:39:41.452Z,52.00
2018-06-20T17:44:52.936Z,52.30
2018-06-20T17:47:21.503Z,52.50
2018-06-20T17:49:50.160Z,51.30
2018-06-20T17:52:18.878Z,51.10
2018-06-20T17:54:47.574Z,52.00
2018-06-20T17:57:16.168Z,51.70
2018-06-20T17:59:44.678Z,52.10
2018-06-20T18:02:13.310Z,51.60
2018-06-20T18:04:47.150Z,51.80
2018-06-20T18:07:20.961Z,52.50
2018-06-20T18:09:54.769Z,51.90
2018-06-20T18:12:28.780Z,52.50
2018-06-20T18:15:02.589Z,52.80
2018-06-20T18:20:13.764Z,53.00
2018-06-20T18:22:42.106Z,53.40
2018-06-20T18:25:10.586Z,53.40
2018-06-20T18:27:39.917Z,53.40
2018-06-20T18:30:08.550Z,53.50
2018-06-20T18:32:36.984Z,54.00
2018-06-20T18:35:05.548Z,54.40
2018-06-20T18:37:34.098Z,54.60
2018-06-20T18:40:07.785Z,55.40
2018-06-20T18:42:36.565Z,55.10
2018-06-20T18:45:10.858Z,55.30
2018-06-20T18:47:44.685Z,55.80
2018-06-20T18:50:14.546Z,56.00
2018-06-20T18:52:42.970Z,56.00
2018-06-20T18:55:12.027Z,56.10
2018-06-20T18:57:45.726Z,55.80
2018-06-20T19:00:19.527Z,56.00
2018-06-20T19:02:54.846Z,56.00
2018-06-20T19:05:28.554Z,56.30
2018-06-20T19:08:02.390Z,56.40
2018-06-20T19:10:36.775Z,56.10
2018-06-20T19:13:05.966Z,56.00
2018-06-20T19:15:42.013Z,56.10
2018-06-20T19:18:11.786Z,56.00
2018-06-20T19:20:40.193Z,56.10
2018-06-20T19:23:08.777Z,56.20
2018-06-20T19:25:37.406Z,56.00
2018-06-20T19:28:06.412Z,56.30
2018-06-20T19:30:35.089Z,56.10
2018-06-20T19:33:03.731Z,56.50
2018-06-20T19:35:32.383Z,56.50
2018-06-20T19:38:01.114Z,56.70
2018-06-20T19:40:30.983Z,56.60
2018-06-20T19:43:00.529Z,56.80
2018-06-20T19:45:29.075Z,57.00
2018-06-20T19:47:57.910Z,57.10
2018-06-20T19:50:26.637Z,57.10
2018-06-20T19:52:55.045Z,57.60
2018-06-20T19:55:24.053Z,57.70
2018-06-20T19:57:52.589Z,57.80
2018-06-20T20:00:21.330Z,58.00
2018-06-20T20:02:49.880Z,58.20
2018-06-20T20:05:18.273Z,58.50
2018-06-20T20:07:46.704Z,58.80
2018-06-20T20:10:15.141Z,59.30
2018-06-20T20:12:43.980Z,59.60
2018-06-20T20:15:15.007Z,59.70
2018-06-20T20:17:43.410Z,60.10
2018-06-20T20:20:12.004Z,60.30
2018-06-20T20:22:43.345Z,61.20
2018-06-20T20:25:11.864Z,60.60
2018-06-20T20:27:40.312Z,60.80
2018-06-20T20:30:08.765Z,60.80
2018-06-20T20:32:37.227Z,60.90
2018-06-20T20:35:05.629Z,61.00
2018-06-20T20:37:34.896Z,61.30
2018-06-20T20:40:03.306Z,61.60
2018-06-20T20:42:31.760Z,61.50
2018-06-20T20:47:28.313Z,61.70
2018-06-20T20:49:57.017Z,61.90
2018-06-20T20:52:25.500Z,62.30
2018-06-20T20:54:54.024Z,62.30
2018-06-20T20:57:22.622Z,62.40
2018-06-20T20:59:51.154Z,63.10
2018-06-20T21:02:19.777Z,62.50
2018-06-20T21:04:48.339Z,62.40
2018-06-20T21:07:17.046Z,62.50
2018-06-20T21:09:51.458Z,62.40
2018-06-20T21:12:20.370Z,62.50
2018-06-20T21:14:48.925Z,62.50
2018-06-20T21:17:17.608Z,62.70
2018-06-20T21:19:46.108Z,62.40
2018-06-20T21:22:14.698Z,62.70
2018-06-20T21:24:43.138Z,62.80
2018-06-20T21:27:11.613Z,62.10
2018-06-20T21:29:40.106Z,62.40
2018-06-20T21:32:08.596Z,62.60
2018-06-20T21:34:37.056Z,63.10
2018-06-20T21:37:05.535Z,62.80
2018-06-20T21:39:33.892Z,62.50
2018-06-20T21:42:02.268Z,62.40
2018-06-20T21:44:30.863Z,62.60
2018-06-20T21:46:59.236Z,63.20
2018-06-20T21:49:27.662Z,62.70
2018-06-20T21:54:24.122Z,62.20
2018-06-20T21:56:52.946Z,62.80
2018-06-20T21:59:21.420Z,63.20
2018-06-20T22:01:49.926Z,63.10
2018-06-20T22:04:18.507Z,62.70
2018-06-20T22:06:47.364Z,62.90
2018-06-20T22:09:15.892Z,62.70
2018-06-20T22:11:44.360Z,62.60
2018-06-20T22:14:12.793Z,62.20
2018-06-20T22:16:41.260Z,63.00
2018-06-20T22:19:09.620Z,63.10
2018-06-20T22:21:38.052Z,63.20
2018-06-20T22:24:06.550Z,63.40
2018-06-20T22:26:34.972Z,63.00
2018-06-20T22:29:03.345Z,63.10
2018-06-20T22:31:31.708Z,63.20
2018-06-20T22:34:00.144Z,63.60
2018-06-20T22:36:28.567Z,63.00
2018-06-20T22:38:57.024Z,64.00
2018-06-20T22:41:25.551Z,63.30
2018-06-20T22:43:53.895Z,63.70
2018-06-20T22:46:22.454Z,63.60
2018-06-20T22:48:50.928Z,63.80
2018-06-20T22:51:19.387Z,63.80
2018-06-20T22:53:47.917Z,63.60
2018-06-20T22:56:16.542Z,63.50
2018-06-20T22:58:45.040Z,63.90
2018-06-20T23:01:13.473Z,64.00
2018-06-20T23:03:41.909Z,64.30
2018-06-20T23:06:10.365Z,64.40
2018-06-20T23:11:06.857Z,64.70
2018-06-20T23:13:35.235Z,64.60
2018-06-20T23:18:31.874Z,64.70
2018-06-20T23:21:00.255Z,64.90
2018-06-20T23:23:28.622Z,64.90
2018-06-20T23:25:57.046Z,65.10
2018-06-20T23:28:25.420Z,65.10
2018-06-20T23:30:53.856Z,65.20
2018-06-20T23:33:22.286Z,65.40
2018-06-20T23:35:50.768Z,65.70
2018-06-20T23:38:19.285Z,65.70
2018-06-20T23:40:47.832Z,65.70
2018-06-20T23:43:16.411Z,66.00
2018-06-20T23:45:44.905Z,66.80
2018-06-20T23:48:13.326Z,65.90
2018-06-20T23:50:41.763Z,66.00
2018-06-20T23:53:10.242Z,66.30
2018-06-20T23:55:38.577Z,66.10
2018-06-20T23:58:07.115Z,66.20
